createdAt,value
2023-01-22T00:01:25.636Z,32.00
2023-01-22T00:03:55.602Z,32.00
2023-01-22T00:06:24.608Z,32.00
2023-01-22T00:08:53.496Z,32.75
2023-01-22T00:11:22.100Z,32.75
2023-01-22T00:13:50.457Z,33.75
2023-01-22T00:16:19.506Z,31.75
2023-01-22T00:18:47.991Z,30.75
2023-01-22T00:21:16.340Z,32.50
2023-01-22T00:23:44.612Z,31.75
2023-01-22T00:26:18.389Z,30.00
2023-01-22T00:28:46.708Z,29.75
2023-01-22T00:31:17.439Z,29.25
2023-01-22T00:33:47.275Z,30.00
2023-01-22T00:36:18.987Z,29.75
2023-01-22T00:38:47.685Z,30.25
2023-01-22T00:41:17.546Z,29.50
2023-01-22T00:43:46.057Z,30.00
2023-01-22T00:46:16.999Z,29.00
2023-01-22T00:48:50.611Z,30.00
2023-01-22T00:51:19.173Z,29.00
2023-01-22T00:53:47.705Z,30.00
2023-01-22T00:56:16.433Z,30.25
2023-01-22T00:58:44.881Z,29.75
2023-01-22T01:01:15.456Z,29.00
2023-01-22T01:03:44.079Z,31.75
2023-01-22T01:06:20.701Z,30.00
2023-01-22T01:08:50.605Z,30.75
2023-01-22T01:11:27.014Z,34.25
2023-01-22T01:13:55.552Z,32.75
2023-01-22T01:16:32.328Z,31.75
2023-01-22T01:19:07.016Z,32.00
2023-01-22T01:21:36.601Z,33.00
2023-01-22T01:24:05.221Z,31.00
2023-01-22T01:26:35.696Z,30.00
2023-01-22T01:29:05.782Z,33.50
2023-01-22T01:31:34.144Z,31.75
2023-01-22T01:34:02.542Z,31.50
2023-01-22T01:36:47.619Z,32.25
2023-01-22T01:39:16.984Z,32.75
2023-01-22T01:41:45.294Z,32.00
2023-01-22T01:44:16.813Z,31.00
2023-01-22T01:46:55.209Z,30.25
2023-01-22T01:49:31.300Z,30.00
2023-01-22T01:52:03.106Z,30.00
2023-01-22T01:54:32.608Z,29.75
2023-01-22T01:57:10.400Z,29.00
2023-01-22T01:59:40.380Z,29.00
2023-01-22T02:02:12.430Z,29.75
2023-01-22T02:04:40.777Z,30.00
2023-01-22T02:07:09.249Z,31.25
2023-01-22T02:09:37.725Z,31.00
2023-01-22T02:12:06.337Z,31.50
2023-01-22T02:14:38.772Z,32.25
2023-01-22T02:17:13.681Z,31.00
2023-01-22T02:19:42.863Z,31.25
2023-01-22T02:22:25.105Z,30.25
2023-01-22T02:24:53.432Z,30.75
2023-01-22T02:27:22.057Z,30.00
2023-01-22T02:29:51.083Z,30.00
2023-01-22T02:32:19.487Z,27.00
2023-01-22T02:34:47.782Z,27.25
2023-01-22T02:37:16.088Z,27.75
2023-01-22T02:39:44.459Z,28.50
2023-01-22T02:42:12.884Z,27.25
2023-01-22T02:44:41.177Z,26.75
2023-01-22T02:47:09.511Z,26.75
2023-01-22T02:49:37.882Z,25.50
2023-01-22T02:52:06.190Z,26.25
2023-01-22T02:54:34.493Z,25.50
2023-01-22T02:57:02.888Z,24.50
2023-01-22T02:59:31.237Z,25.00
2023-01-22T03:01:59.641Z,24.50
2023-01-22T03:04:29.753Z,24.50
2023-01-22T03:06:58.098Z,25.50
2023-01-22T03:09:26.384Z,23.25
2023-01-22T03:11:54.687Z,21.75
2023-01-22T03:14:41.291Z,22.00
2023-01-22T03:17:28.566Z,18.25
2023-01-22T03:20:15.182Z,20.75
2023-01-22T03:22:43.664Z,19.00
2023-01-22T03:25:12.048Z,17.25
2023-01-22T03:28:03.007Z,18.50
2023-01-22T03:30:31.333Z,18.75
2023-01-22T03:32:59.605Z,18.25
2023-01-22T03:35:27.896Z,17.25
2023-01-22T03:37:56.215Z,18.50
2023-01-22T03:40:24.479Z,18.25
2023-01-22T03:42:54.458Z,18.25
2023-01-22T03:45:22.771Z,19.00
2023-01-22T03:47:52.240Z,16.75
2023-01-22T03:50:20.576Z,17.00
2023-01-22T03:52:48.858Z,19.00
2023-01-22T03:55:17.871Z,17.50
2023-01-22T03:57:46.208Z,17.00
2023-01-22T04:00:15.101Z,19.00
2023-01-22T04:02:43.502Z,15.50
2023-01-22T04:05:11.836Z,14.50
2023-01-22T04:07:40.131Z,16.50
2023-01-22T04:10:09.243Z,16.00
2023-01-22T04:12:37.500Z,16.50
2023-01-22T04:15:06.252Z,16.50
2023-01-22T04:17:34.537Z,17.75
2023-01-22T04:20:02.939Z,16.25
2023-01-22T04:22:31.224Z,16.75
2023-01-22T04:24:59.510Z,19.00
2023-01-22T04:27:27.843Z,18.25
2023-01-22T04:29:56.122Z,17.00
2023-01-22T04:32:24.442Z,16.00
2023-01-22T04:34:52.765Z,16.50
2023-01-22T04:37:21.049Z,19.00
2023-01-22T04:39:49.356Z,19.00
2023-01-22T04:42:17.642Z,19.00
2023-01-22T04:44:45.922Z,18.25
2023-01-22T04:47:14.236Z,18.50
2023-01-22T04:49:42.609Z,19.00
2023-01-22T04:52:10.922Z,16.75
2023-01-22T04:54:39.238Z,16.25
2023-01-22T04:57:07.696Z,18.00
2023-01-22T04:59:36.052Z,15.25
2023-01-22T05:02:05.066Z,18.50
2023-01-22T05:04:33.373Z,17.50
2023-01-22T05:07:01.716Z,17.50
2023-01-22T05:09:30.001Z,19.00
2023-01-22T05:11:58.275Z,17.00
2023-01-22T05:14:26.677Z,15.25
2023-01-22T05:16:54.961Z,15.25
2023-01-22T05:19:23.365Z,15.25
2023-01-22T05:21:51.783Z,15.00
2023-01-22T05:24:20.084Z,16.75
2023-01-22T05:26:48.369Z,13.00
2023-01-22T05:29:16.682Z,13.50
2023-01-22T05:31:45.083Z,14.75
2023-01-22T05:34:13.403Z,12.25
2023-01-22T05:36:41.724Z,12.50
2023-01-22T05:39:10.062Z,13.00
2023-01-22T05:41:38.522Z,14.00
2023-01-22T05:44:07.536Z,13.00
2023-01-22T05:46:35.832Z,11.50
2023-01-22T05:49:04.299Z,8.50
2023-01-22T05:51:32.978Z,9.75
2023-01-22T05:54:01.682Z,11.25
2023-01-22T05:56:30.103Z,9.50
2023-01-22T05:58:58.738Z,9.50
2023-01-22T06:01:27.413Z,8.75
2023-01-22T06:03:55.713Z,8.75
2023-01-22T06:06:24.151Z,8.25
2023-01-22T06:08:53.728Z,7.75
2023-01-22T06:11:22.155Z,7.00
2023-01-22T06:13:50.545Z,6.50
2023-01-22T06:16:18.965Z,6.00
2023-01-22T06:18:47.277Z,7.00
2023-01-22T06:21:15.571Z,6.75
2023-01-22T06:23:43.875Z,5.75
2023-01-22T06:26:12.172Z,8.00
2023-01-22T06:28:40.456Z,6.75
2023-01-22T06:31:08.838Z,8.00
2023-01-22T06:33:39.053Z,7.50
2023-01-22T06:36:07.935Z,7.75
2023-01-22T06:38:37.402Z,7.25
2023-01-22T06:41:06.070Z,8.75
2023-01-22T06:43:34.459Z,10.00
2023-01-22T06:46:05.295Z,9.75
2023-01-22T06:48:33.902Z,8.00
2023-01-22T06:51:02.908Z,8.75
2023-01-22T06:53:31.224Z,8.75
2023-01-22T06:56:03.299Z,8.50
2023-01-22T06:58:32.034Z,9.00
2023-01-22T07:01:04.196Z,8.00
2023-01-22T07:03:32.892Z,8.25
2023-01-22T07:06:03.709Z,8.25
2023-01-22T07:08:33.990Z,6.75
2023-01-22T07:11:02.815Z,6.75
2023-01-22T07:13:31.269Z,6.00
2023-01-22T07:16:04.614Z,8.25
2023-01-22T07:18:33.248Z,6.00
2023-01-22T07:21:03.336Z,7.75
2023-01-22T07:23:31.997Z,7.50
2023-01-22T07:26:00.706Z,8.75
2023-01-22T07:28:29.117Z,6.50
2023-01-22T07:30:58.129Z,7.50
2023-01-22T07:33:26.593Z,6.75
2023-01-22T07:35:57.436Z,7.25
2023-01-22T07:38:28.773Z,7.25
2023-01-22T07:41:13.931Z,7.25
2023-01-22T07:43:53.554Z,7.50
2023-01-22T07:46:22.067Z,8.75
2023-01-22T07:48:50.364Z,7.00
2023-01-22T07:51:18.805Z,8.00
2023-01-22T07:53:47.365Z,8.50
2023-01-22T07:56:15.681Z,7.00
2023-01-22T07:58:43.989Z,8.00
2023-01-22T08:01:12.502Z,6.75
2023-01-22T08:03:41.001Z,7.50
2023-01-22T08:06:14.238Z,7.25
2023-01-22T08:08:43.562Z,7.50
2023-01-22T08:11:11.840Z,8.00
2023-01-22T08:13:40.343Z,10.00
2023-01-22T08:16:10.352Z,8.25
2023-01-22T08:18:39.310Z,9.00
2023-01-22T08:21:07.896Z,8.00
2023-01-22T08:23:36.418Z,7.25
2023-01-22T08:26:05.502Z,8.50
2023-01-22T08:28:33.870Z,9.00
2023-01-22T08:31:04.288Z,7.75
2023-01-22T08:33:34.629Z,8.00
2023-01-22T08:36:02.972Z,8.75
2023-01-22T08:38:31.360Z,10.00
2023-01-22T08:40:59.666Z,9.00
2023-01-22T08:43:28.018Z,9.50
2023-01-22T08:45:56.393Z,10.25
2023-01-22T08:48:24.720Z,10.25
2023-01-22T08:50:53.045Z,9.25
2023-01-22T08:53:21.355Z,12.25
2023-01-22T08:55:52.844Z,10.50
2023-01-22T08:58:23.069Z,11.75
2023-01-22T09:00:51.404Z,11.00
2023-01-22T09:03:19.780Z,12.50
2023-01-22T09:05:48.458Z,10.25
2023-01-22T09:08:16.771Z,8.50
2023-01-22T09:10:45.938Z,10.25
2023-01-22T09:13:14.269Z,8.25
2023-01-22T09:15:42.681Z,7.75
2023-01-22T09:18:11.471Z,8.50
2023-01-22T09:20:39.741Z,11.00
2023-01-22T09:23:08.417Z,10.00
2023-01-22T09:25:37.133Z,9.25
2023-01-22T09:28:08.139Z,9.00
2023-01-22T09:30:40.284Z,9.75
2023-01-22T09:33:08.712Z,8.50
2023-01-22T09:35:37.010Z,9.50
2023-01-22T09:38:06.666Z,10.00
2023-01-22T09:40:52.318Z,9.25
2023-01-22T09:43:29.738Z,8.25
2023-01-22T09:46:01.770Z,9.00
2023-01-22T09:48:44.897Z,9.50
2023-01-22T09:51:18.104Z,9.00
2023-01-22T09:53:54.267Z,11.00
2023-01-22T09:56:27.321Z,9.00
2023-01-22T09:58:57.615Z,9.50
2023-01-22T10:01:27.799Z,10.75
2023-01-22T10:04:04.185Z,11.50
2023-01-22T10:06:32.704Z,10.00
2023-01-22T10:09:20.583Z,8.00
2023-01-22T10:11:55.222Z,9.25
2023-01-22T10:14:27.875Z,9.50
2023-01-22T10:16:59.884Z,9.50
2023-01-22T10:19:39.748Z,10.25
2023-01-22T10:22:15.376Z,8.75
2023-01-22T10:24:43.634Z,10.75
2023-01-22T10:27:17.336Z,10.50
2023-01-22T10:30:03.337Z,11.50
2023-01-22T10:32:33.244Z,12.50
2023-01-22T10:35:02.992Z,11.25
2023-01-22T10:37:31.999Z,13.50
2023-01-22T10:40:01.479Z,17.25
2023-01-22T10:42:30.913Z,14.25
2023-01-22T10:45:12.616Z,14.00
2023-01-22T10:47:40.921Z,14.00
2023-01-22T10:50:19.007Z,13.50
2023-01-22T10:52:56.115Z,14.00
2023-01-22T10:55:32.286Z,12.50
2023-01-22T10:58:06.523Z,15.75
2023-01-22T11:00:51.207Z,13.75
2023-01-22T11:03:40.463Z,14.00
2023-01-22T11:06:25.588Z,12.25
2023-01-22T11:09:02.901Z,13.25
2023-01-22T11:11:39.367Z,11.75
2023-01-22T11:14:24.633Z,12.00
2023-01-22T11:16:55.293Z,12.25
2023-01-22T11:19:37.240Z,14.25
2023-01-22T11:22:16.065Z,13.50
2023-01-22T11:24:48.226Z,12.00
2023-01-22T11:27:27.038Z,14.50
2023-01-22T11:30:15.972Z,11.75
2023-01-22T11:32:57.932Z,13.00
2023-01-22T11:35:35.078Z,11.50
2023-01-22T11:38:15.183Z,10.50
2023-01-22T11:40:55.728Z,14.75
2023-01-22T11:43:56.629Z,15.25
2023-01-22T11:47:05.877Z,17.25
2023-01-22T11:49:40.179Z,12.75
2023-01-22T11:52:23.376Z,13.75
2023-01-22T11:55:02.495Z,17.75
2023-01-22T11:57:52.462Z,19.25
2023-01-22T12:00:29.026Z,19.75
2023-01-22T12:03:26.199Z,18.75
2023-01-22T12:06:14.061Z,18.00
2023-01-22T12:09:07.408Z,16.75
2023-01-22T12:11:53.718Z,17.00
2023-01-22T12:14:30.029Z,15.75
2023-01-22T12:17:39.510Z,16.00
2023-01-22T12:20:32.091Z,19.25
2023-01-22T12:23:27.283Z,20.00
2023-01-22T12:26:04.320Z,21.75
2023-01-22T12:28:55.703Z,26.50
2023-01-22T12:31:43.916Z,23.25
2023-01-22T12:34:21.266Z,22.00
2023-01-22T12:36:50.504Z,22.75
2023-01-22T12:39:31.699Z,26.00
2023-01-22T12:42:44.569Z,25.00
2023-01-22T12:45:28.480Z,26.75
2023-01-22T12:48:11.821Z,25.25
2023-01-22T12:50:53.541Z,25.75
2023-01-22T12:53:31.326Z,24.25
2023-01-22T12:56:03.541Z,24.75
2023-01-22T12:58:38.050Z,25.75
2023-01-22T13:01:34.123Z,23.50
2023-01-22T13:04:07.671Z,26.00
2023-01-22T13:06:41.622Z,24.00
2023-01-22T13:09:30.056Z,25.25
2023-01-22T13:12:25.664Z,25.50
2023-01-22T13:14:55.040Z,24.50
2023-01-22T13:17:31.470Z,25.25
2023-01-22T13:20:00.232Z,24.50
2023-01-22T13:22:29.326Z,23.00
2023-01-22T13:24:59.549Z,22.00
2023-01-22T13:27:34.746Z,23.00
2023-01-22T13:30:15.706Z,23.00
2023-01-22T13:32:44.159Z,23.00
2023-01-22T13:35:19.790Z,22.50
2023-01-22T13:37:52.818Z,22.75
2023-01-22T13:40:25.768Z,22.00
2023-01-22T13:42:56.002Z,22.00
2023-01-22T13:45:28.085Z,21.00
2023-01-22T13:48:03.971Z,22.00
2023-01-22T13:50:33.653Z,22.00
2023-01-22T13:53:03.353Z,21.50
2023-01-22T13:55:32.029Z,22.00
2023-01-22T13:58:06.191Z,23.25
2023-01-22T14:00:37.365Z,24.50
2023-01-22T14:03:23.000Z,24.00
2023-01-22T14:05:51.278Z,24.75
2023-01-22T14:08:19.746Z,23.25
2023-01-22T14:10:58.600Z,23.00
2023-01-22T14:13:26.939Z,23.00
2023-01-22T14:16:01.040Z,23.00
2023-01-22T14:18:30.521Z,22.75
2023-01-22T14:20:58.806Z,22.00
2023-01-22T14:23:27.216Z,22.75
2023-01-22T14:25:58.631Z,25.00
2023-01-22T14:28:30.007Z,23.00
2023-01-22T14:30:58.370Z,22.50
2023-01-22T14:33:33.020Z,23.25
2023-01-22T14:36:01.647Z,23.00
2023-01-22T14:38:30.252Z,22.00
2023-01-22T14:40:58.575Z,22.00
2023-01-22T14:43:27.057Z,22.50
2023-01-22T14:45:55.993Z,22.25
2023-01-22T14:48:24.396Z,22.25
2023-01-22T14:50:52.844Z,22.25
2023-01-22T14:53:21.242Z,22.00
2023-01-22T14:55:49.620Z,22.50
2023-01-22T14:58:17.932Z,22.00
2023-01-22T15:00:46.210Z,22.00
2023-01-22T15:03:17.097Z,22.75
2023-01-22T15:05:46.159Z,22.00
2023-01-22T15:08:14.810Z,23.00
2023-01-22T15:10:43.122Z,23.00
2023-01-22T15:13:11.509Z,22.25
2023-01-22T15:15:39.851Z,22.75
2023-01-22T15:18:08.143Z,23.75
2023-01-22T15:20:36.825Z,23.00
2023-01-22T15:23:05.140Z,22.00
2023-01-22T15:25:33.442Z,21.50
2023-01-22T15:28:01.830Z,23.00
2023-01-22T15:30:30.624Z,22.50
2023-01-22T15:32:58.956Z,22.50
2023-01-22T15:35:27.313Z,23.75
2023-01-22T15:37:55.593Z,25.50
2023-01-22T15:40:23.980Z,26.00
2023-01-22T15:42:52.231Z,26.00
2023-01-22T15:45:20.509Z,25.25
2023-01-22T15:47:49.123Z,23.50
2023-01-22T15:50:21.153Z,26.75
2023-01-22T15:52:53.892Z,26.25
2023-01-22T15:55:22.606Z,25.00
2023-01-22T15:57:50.962Z,23.75
2023-01-22T16:00:19.931Z,23.75
2023-01-22T16:02:48.458Z,23.00
2023-01-22T16:05:16.838Z,25.50
2023-01-22T16:07:45.137Z,26.25
2023-01-22T16:10:13.420Z,25.25
2023-01-22T16:12:41.704Z,25.50
2023-01-22T16:15:11.162Z,25.00
2023-01-22T16:17:39.496Z,24.00
2023-01-22T16:20:08.726Z,26.00
2023-01-22T16:22:36.999Z,25.00
2023-01-22T16:25:05.485Z,25.25
2023-01-22T16:27:33.776Z,25.00
2023-01-22T16:30:02.297Z,23.25
2023-01-22T16:32:30.734Z,25.00
2023-01-22T16:34:59.011Z,25.25
2023-01-22T16:37:27.524Z,26.50
2023-01-22T16:39:55.771Z,24.00
2023-01-22T16:42:24.062Z,24.00
2023-01-22T16:44:52.389Z,24.00
2023-01-22T16:47:21.247Z,24.00
2023-01-22T16:49:49.844Z,24.75
2023-01-22T16:52:22.704Z,25.00
2023-01-22T16:54:51.711Z,24.75
2023-01-22T16:57:21.072Z,24.00
2023-01-22T16:59:49.445Z,25.50
2023-01-22T17:02:19.933Z,26.00
2023-01-22T17:04:48.441Z,26.25
2023-01-22T17:07:31.951Z,26.75
2023-01-22T17:10:01.954Z,24.50
2023-01-22T17:12:30.431Z,27.25
2023-01-22T17:14:59.020Z,26.00
2023-01-22T17:17:27.404Z,26.50
2023-01-22T17:19:55.935Z,24.75
2023-01-22T17:22:25.138Z,27.50
2023-01-22T17:24:53.619Z,27.50
2023-01-22T17:27:22.510Z,26.75
2023-01-22T17:29:50.811Z,26.25
2023-01-22T17:32:19.090Z,25.25
2023-01-22T17:34:47.602Z,27.00
2023-01-22T17:37:16.116Z,25.50
2023-01-22T17:39:46.980Z,26.00
2023-01-22T17:42:15.376Z,25.50
2023-01-22T17:44:43.666Z,26.50
2023-01-22T17:47:12.338Z,25.25
2023-01-22T17:49:40.749Z,26.75
2023-01-22T17:52:10.107Z,24.75
2023-01-22T17:54:39.179Z,27.00
2023-01-22T17:57:07.583Z,26.00
2023-01-22T17:59:35.917Z,25.00
2023-01-22T18:02:04.252Z,26.50
2023-01-22T18:04:35.385Z,28.00
2023-01-22T18:07:05.250Z,27.50
2023-01-22T18:09:33.616Z,27.00
2023-01-22T18:12:03.823Z,27.00
2023-01-22T18:14:34.868Z,27.00
2023-01-22T18:17:03.611Z,27.25
2023-01-22T18:19:32.141Z,27.00
2023-01-22T18:22:00.459Z,26.25
2023-01-22T18:24:32.051Z,26.25
2023-01-22T18:27:00.912Z,27.50
2023-01-22T18:29:29.737Z,28.00
2023-01-22T18:31:58.183Z,26.00
2023-01-22T18:34:26.646Z,27.25
2023-01-22T18:36:55.041Z,26.00
2023-01-22T18:39:23.802Z,27.50
2023-01-22T18:41:52.108Z,26.00
2023-01-22T18:44:20.852Z,27.25
2023-01-22T18:46:52.603Z,27.00
2023-01-22T18:49:20.897Z,26.00
2023-01-22T18:51:49.589Z,27.00
2023-01-22T18:54:18.518Z,26.25
2023-01-22T18:56:47.699Z,27.00
2023-01-22T18:59:16.047Z,26.50
2023-01-22T19:01:50.948Z,27.50
2023-01-22T19:04:22.646Z,25.75
2023-01-22T19:06:53.665Z,26.50
2023-01-22T19:09:22.361Z,27.00
2023-01-22T19:11:53.083Z,26.00
2023-01-22T19:14:22.121Z,28.00
2023-01-22T19:16:54.841Z,26.75
2023-01-22T19:19:24.048Z,28.00
2023-01-22T19:21:56.325Z,25.75
2023-01-22T19:24:27.498Z,26.00
2023-01-22T19:26:57.358Z,25.75
2023-01-22T19:29:26.920Z,28.00
2023-01-22T19:31:57.855Z,24.00
2023-01-22T19:34:27.206Z,25.25
2023-01-22T19:37:01.355Z,25.50
2023-01-22T19:39:30.257Z,25.00
2023-01-22T19:42:02.728Z,25.50
2023-01-22T19:44:32.782Z,26.00
2023-01-22T19:47:02.871Z,25.00
2023-01-22T19:49:31.398Z,23.75
2023-01-22T19:51:59.945Z,25.25
2023-01-22T19:54:28.308Z,24.00
2023-01-22T19:56:56.660Z,24.50
2023-01-22T19:59:25.683Z,24.50
2023-01-22T20:01:54.330Z,23.50
2023-01-22T20:04:30.578Z,24.00
2023-01-22T20:07:03.417Z,24.50
2023-01-22T20:09:32.175Z,23.00
2023-01-22T20:12:01.267Z,25.75
2023-01-22T20:14:34.979Z,24.00
2023-01-22T20:17:04.322Z,24.00
2023-01-22T20:19:33.170Z,24.50
2023-01-22T20:22:05.287Z,25.00
2023-01-22T20:24:33.904Z,24.00
2023-01-22T20:27:02.410Z,24.00
2023-01-22T20:29:30.935Z,25.00
2023-01-22T20:32:00.185Z,24.50
2023-01-22T20:34:28.666Z,24.75
2023-01-22T20:36:57.080Z,23.25
2023-01-22T20:39:25.374Z,24.00
2023-01-22T20:41:55.661Z,24.25
2023-01-22T20:44:24.530Z,24.00
2023-01-22T20:46:52.949Z,23.50
2023-01-22T20:49:21.280Z,25.75
2023-01-22T20:51:49.600Z,25.75
2023-01-22T20:54:19.344Z,24.75
2023-01-22T20:56:47.690Z,24.00
2023-01-22T20:59:20.759Z,24.00
2023-01-22T21:01:49.581Z,23.25
2023-01-22T21:04:19.767Z,24.75
2023-01-22T21:06:48.661Z,23.75
2023-01-22T21:09:17.029Z,23.25
2023-01-22T21:11:45.510Z,24.75
2023-01-22T21:14:18.708Z,25.00
2023-01-22T21:16:47.191Z,24.00
2023-01-22T21:19:20.608Z,23.75
2023-01-22T21:21:49.008Z,25.75
2023-01-22T21:24:18.087Z,24.75
2023-01-22T21:26:46.772Z,26.00
2023-01-22T21:29:18.230Z,23.25
2023-01-22T21:31:49.939Z,25.25
2023-01-22T21:34:20.825Z,23.75
2023-01-22T21:36:50.258Z,24.00
2023-01-22T21:39:22.290Z,24.00
2023-01-22T21:41:50.696Z,26.00
2023-01-22T21:44:39.339Z,24.75
2023-01-22T21:47:07.763Z,24.50
2023-01-22T21:49:37.046Z,26.00
2023-01-22T21:52:07.114Z,26.00
2023-01-22T21:54:38.795Z,25.75
2023-01-22T21:57:08.127Z,27.00
2023-01-22T21:59:39.154Z,26.25
2023-01-22T22:02:08.311Z,26.25
2023-01-22T22:04:36.935Z,25.25
2023-01-22T22:07:05.219Z,26.75
2023-01-22T22:09:33.488Z,26.25
2023-01-22T22:12:03.640Z,25.75
2023-01-22T22:14:32.308Z,25.75
2023-01-22T22:17:00.856Z,27.25
2023-01-22T22:19:29.820Z,28.00
2023-01-22T22:21:58.182Z,28.00
2023-01-22T22:24:26.557Z,26.00
2023-01-22T22:26:54.921Z,28.00
2023-01-22T22:29:23.245Z,26.75
2023-01-22T22:31:51.617Z,29.75
2023-01-22T22:34:19.982Z,28.75
2023-01-22T22:36:48.547Z,29.75
2023-01-22T22:39:16.841Z,26.00
2023-01-22T22:41:45.413Z,28.25
2023-01-22T22:44:15.917Z,28.25
2023-01-22T22:46:44.284Z,27.75
2023-01-22T22:49:14.611Z,28.00
2023-01-22T22:51:44.384Z,28.00
2023-01-22T22:54:18.066Z,29.75
2023-01-22T22:56:48.322Z,31.50
2023-01-22T22:59:20.594Z,30.75
2023-01-22T23:01:50.434Z,29.50
2023-01-22T23:04:18.865Z,28.25
2023-01-22T23:06:47.853Z,28.50
2023-01-22T23:09:20.458Z,27.00
2023-01-22T23:11:52.497Z,28.00
2023-01-22T23:14:21.002Z,27.00
2023-01-22T23:16:50.413Z,29.00
2023-01-22T23:19:25.366Z,28.50
2023-01-22T23:21:59.716Z,28.75
2023-01-22T23:24:28.750Z,30.25
2023-01-22T23:26:57.934Z,29.00
2023-01-22T23:29:27.787Z,29.50
2023-01-22T23:31:57.568Z,29.25
2023-01-22T23:34:25.994Z,29.00
2023-01-22T23:36:54.634Z,28.75
2023-01-22T23:39:23.241Z,29.00
2023-01-22T23:41:51.686Z,28.50
2023-01-22T23:44:20.031Z,29.00
2023-01-22T23:46:48.544Z,30.25
2023-01-22T23:49:16.855Z,30.75
2023-01-22T23:51:46.084Z,31.00
2023-01-22T23:54:14.622Z,30.75
2023-01-22T23:56:42.961Z,31.00
2023-01-22T23:59:12.405Z,31.75
